sensor_id;sensor_type;location;lat;lon;timestamp;temperature;humidity
33863;DHT22;20158;51.436;-2.742;2023-07-20T00:02:24;18.50;55.70
33863;DHT22;20158;51.436;-2.742;2023-07-20T00:04:50;18.50;55.80
33863;DHT22;20158;51.436;-2.742;2023-07-20T00:07:16;18.50;55.90
33863;DHT22;20158;51.436;-2.742;2023-07-20T00:09:42;18.40;55.80
33863;DHT22;20158;51.436;-2.742;2023-07-20T00:12:11;18.30;55.70
33863;DHT22;20158;51.436;-2.742;2023-07-20T00:14:37;18.30;55.90
33863;DHT22;20158;51.436;-2.742;2023-07-20T00:17:04;18.20;55.80
33863;DHT22;20158;51.436;-2.742;2023-07-20T00:19:30;18.20;55.90
33863;DHT22;20158;51.436;-2.742;2023-07-20T00:22:01;18.10;55.80
33863;DHT22;20158;51.436;-2.742;2023-07-20T00:24:27;18.10;56.00
33863;DHT22;20158;51.436;-2.742;2023-07-20T00:26:53;18.00;55.90
33863;DHT22;20158;51.436;-2.742;2023-07-20T00:29:20;18.00;56.00
33863;DHT22;20158;51.436;-2.742;2023-07-20T00:31:47;18.00;56.00
33863;DHT22;20158;51.436;-2.742;2023-07-20T00:34:13;17.90;55.90
33863;DHT22;20158;51.436;-2.742;2023-07-20T00:36:40;17.90;56.10
33863;DHT22;20158;51.436;-2.742;2023-07-20T00:39:07;17.80;55.90
33863;DHT22;20158;51.436;-2.742;2023-07-20T00:41:35;17.80;55.90
33863;DHT22;20158;51.436;-2.742;2023-07-20T00:44:05;17.70;55.80
33863;DHT22;20158;51.436;-2.742;2023-07-20T00:46:38;17.70;55.80
33863;DHT22;20158;51.436;-2.742;2023-07-20T00:49:06;17.60;55.70
33863;DHT22;20158;51.436;-2.742;2023-07-20T00:51:32;17.50;55.50
33863;DHT22;20158;51.436;-2.742;2023-07-20T00:53:59;17.50;55.60
33863;DHT22;20158;51.436;-2.742;2023-07-20T00:56:25;17.50;55.60
33863;DHT22;20158;51.436;-2.742;2023-07-20T00:58:52;17.40;55.50
33863;DHT22;20158;51.436;-2.742;2023-07-20T01:01:18;17.40;55.60
33863;DHT22;20158;51.436;-2.742;2023-07-20T01:03:48;17.30;55.50
33863;DHT22;20158;51.436;-2.742;2023-07-20T01:09:37;17.20;55.60
33863;DHT22;20158;51.436;-2.742;2023-07-20T01:12:22;17.20;55.50
33863;DHT22;20158;51.436;-2.742;2023-07-20T01:14:52;17.10;55.40
33863;DHT22;20158;51.436;-2.742;2023-07-20T01:17:19;17.10;56.00
33863;DHT22;20158;51.436;-2.742;2023-07-20T01:19:45;17.00;55.30
33863;DHT22;20158;51.436;-2.742;2023-07-20T01:33:09;16.80;55.20
33863;DHT22;20158;51.436;-2.742;2023-07-20T01:35:38;16.70;55.00
33863;DHT22;20158;51.436;-2.742;2023-07-20T01:38:07;16.70;55.10
33863;DHT22;20158;51.436;-2.742;2023-07-20T01:40:35;16.60;55.00
33863;DHT22;20158;51.436;-2.742;2023-07-20T01:43:02;16.60;55.10
33863;DHT22;20158;51.436;-2.742;2023-07-20T01:45:29;16.50;55.00
33863;DHT22;20158;51.436;-2.742;2023-07-20T01:48:00;16.50;55.10
33863;DHT22;20158;51.436;-2.742;2023-07-20T01:50:26;16.40;55.00
33863;DHT22;20158;51.436;-2.742;2023-07-20T01:52:53;16.40;55.10
33863;DHT22;20158;51.436;-2.742;2023-07-20T01:55:19;16.40;55.10
33863;DHT22;20158;51.436;-2.742;2023-07-20T01:57:48;16.30;55.00
33863;DHT22;20158;51.436;-2.742;2023-07-20T02:00:16;16.30;55.10
33863;DHT22;20158;51.436;-2.742;2023-07-20T02:03:02;16.30;55.20
33863;DHT22;20158;51.436;-2.742;2023-07-20T02:05:29;16.20;55.10
33863;DHT22;20158;51.436;-2.742;2023-07-20T02:07:55;16.20;55.10
33863;DHT22;20158;51.436;-2.742;2023-07-20T02:10:21;16.20;55.10
33863;DHT22;20158;51.436;-2.742;2023-07-20T02:12:48;16.10;55.00
33863;DHT22;20158;51.436;-2.742;2023-07-20T02:15:15;16.10;55.00
33863;DHT22;20158;51.436;-2.742;2023-07-20T02:17:43;16.10;55.10
33863;DHT22;20158;51.436;-2.742;2023-07-20T02:20:09;16.00;54.90
33863;DHT22;20158;51.436;-2.742;2023-07-20T02:22:37;16.00;55.00
33863;DHT22;20158;51.436;-2.742;2023-07-20T02:25:09;15.90;55.00
33863;DHT22;20158;51.436;-2.742;2023-07-20T02:27:37;15.90;54.90
33863;DHT22;20158;51.436;-2.742;2023-07-20T02:30:03;15.80;54.80
33863;DHT22;20158;51.436;-2.742;2023-07-20T02:32:31;15.80;54.90
33863;DHT22;20158;51.436;-2.742;2023-07-20T02:34:58;15.80;55.00
33863;DHT22;20158;51.436;-2.742;2023-07-20T02:37:24;15.70;54.90
33863;DHT22;20158;51.436;-2.742;2023-07-20T02:39:50;15.70;55.00
33863;DHT22;20158;51.436;-2.742;2023-07-20T02:42:17;15.70;55.10
33863;DHT22;20158;51.436;-2.742;2023-07-20T02:44:43;15.60;55.00
33863;DHT22;20158;51.436;-2.742;2023-07-20T02:47:09;15.60;55.00
33863;DHT22;20158;51.436;-2.742;2023-07-20T02:49:35;15.60;55.10
33863;DHT22;20158;51.436;-2.742;2023-07-20T02:52:01;15.50;54.90
33863;DHT22;20158;51.436;-2.742;2023-07-20T02:54:28;15.50;55.00
33863;DHT22;20158;51.436;-2.742;2023-07-20T02:56:56;15.40;54.90
33863;DHT22;20158;51.436;-2.742;2023-07-20T02:59:22;15.40;55.00
33863;DHT22;20158;51.436;-2.742;2023-07-20T03:01:48;15.40;55.10
33863;DHT22;20158;51.436;-2.742;2023-07-20T03:04:14;15.30;55.00
33863;DHT22;20158;51.436;-2.742;2023-07-20T03:06:41;15.30;55.10
33863;DHT22;20158;51.436;-2.742;2023-07-20T03:09:07;15.30;55.10
33863;DHT22;20158;51.436;-2.742;2023-07-20T03:11:33;15.20;55.00
33863;DHT22;20158;51.436;-2.742;2023-07-20T03:14:00;15.20;55.10
33863;DHT22;20158;51.436;-2.742;2023-07-20T03:16:26;15.20;55.10
33863;DHT22;20158;51.436;-2.742;2023-07-20T03:18:53;15.10;55.00
33863;DHT22;20158;51.436;-2.742;2023-07-20T03:21:20;15.10;55.10
33863;DHT22;20158;51.436;-2.742;2023-07-20T03:23:46;15.10;55.20
33863;DHT22;20158;51.436;-2.742;2023-07-20T03:26:13;15.10;55.20
33863;DHT22;20158;51.436;-2.742;2023-07-20T03:28:39;15.00;55.20
33863;DHT22;20158;51.436;-2.742;2023-07-20T03:31:06;15.00;55.20
33863;DHT22;20158;51.436;-2.742;2023-07-20T03:33:35;15.00;55.30
33863;DHT22;20158;51.436;-2.742;2023-07-20T03:36:02;14.90;55.20
33863;DHT22;20158;51.436;-2.742;2023-07-20T03:38:30;14.90;55.20
33863;DHT22;20158;51.436;-2.742;2023-07-20T03:40:58;14.80;55.10
33863;DHT22;20158;51.436;-2.742;2023-07-20T03:43:28;14.90;55.40
33863;DHT22;20158;51.436;-2.742;2023-07-20T03:45:54;14.80;55.20
33863;DHT22;20158;51.436;-2.742;2023-07-20T03:48:23;14.80;55.30
33863;DHT22;20158;51.436;-2.742;2023-07-20T03:50:51;14.80;55.40
33863;DHT22;20158;51.436;-2.742;2023-07-20T03:53:18;14.70;55.20
33863;DHT22;20158;51.436;-2.742;2023-07-20T03:55:49;14.70;55.30
33863;DHT22;20158;51.436;-2.742;2023-07-20T03:58:16;14.60;55.20
33863;DHT22;20158;51.436;-2.742;2023-07-20T04:00:47;14.60;55.30
33863;DHT22;20158;51.436;-2.742;2023-07-20T04:03:14;14.60;55.40
33863;DHT22;20158;51.436;-2.742;2023-07-20T04:05:40;14.60;55.50
33863;DHT22;20158;51.436;-2.742;2023-07-20T04:08:06;14.50;55.30
33863;DHT22;20158;51.436;-2.742;2023-07-20T04:10:32;14.50;55.40
33863;DHT22;20158;51.436;-2.742;2023-07-20T04:12:58;14.50;55.50
33863;DHT22;20158;51.436;-2.742;2023-07-20T04:15:24;14.50;55.60
33863;DHT22;20158;51.436;-2.742;2023-07-20T04:17:50;14.40;55.50
33863;DHT22;20158;51.436;-2.742;2023-07-20T04:20:16;14.40;55.50
33863;DHT22;20158;51.436;-2.742;2023-07-20T04:22:44;14.40;55.70
33863;DHT22;20158;51.436;-2.742;2023-07-20T04:25:13;14.40;55.60
33863;DHT22;20158;51.436;-2.742;2023-07-20T04:27:40;14.30;55.40
33863;DHT22;20158;51.436;-2.742;2023-07-20T04:30:08;14.30;55.50
33863;DHT22;20158;51.436;-2.742;2023-07-20T04:32:35;14.30;55.60
33863;DHT22;20158;51.436;-2.742;2023-07-20T04:35:06;14.30;55.60
33863;DHT22;20158;51.436;-2.742;2023-07-20T04:37:35;14.20;55.50
33863;DHT22;20158;51.436;-2.742;2023-07-20T04:40:03;14.20;55.50
33863;DHT22;20158;51.436;-2.742;2023-07-20T04:42:29;14.20;55.50
33863;DHT22;20158;51.436;-2.742;2023-07-20T04:44:56;14.20;55.60
33863;DHT22;20158;51.436;-2.742;2023-07-20T04:47:23;14.20;55.70
33863;DHT22;20158;51.436;-2.742;2023-07-20T04:49:50;14.20;55.70
33863;DHT22;20158;51.436;-2.742;2023-07-20T04:52:17;14.20;55.80
33863;DHT22;20158;51.436;-2.742;2023-07-20T04:54:43;14.20;55.80
33863;DHT22;20158;51.436;-2.742;2023-07-20T04:57:12;14.20;55.80
33863;DHT22;20158;51.436;-2.742;2023-07-20T04:59:44;14.20;55.80
33863;DHT22;20158;51.436;-2.742;2023-07-20T05:02:10;14.20;55.80
33863;DHT22;20158;51.436;-2.742;2023-07-20T05:04:36;14.20;55.80
33863;DHT22;20158;51.436;-2.742;2023-07-20T05:07:03;14.20;55.80
33863;DHT22;20158;51.436;-2.742;2023-07-20T05:09:29;14.20;55.80
33863;DHT22;20158;51.436;-2.742;2023-07-20T05:11:55;14.20;55.90
33863;DHT22;20158;51.436;-2.742;2023-07-20T05:14:22;14.20;55.90
33863;DHT22;20158;51.436;-2.742;2023-07-20T05:16:54;14.30;56.10
33863;DHT22;20158;51.436;-2.742;2023-07-20T05:19:20;14.30;56.20
33863;DHT22;20158;51.436;-2.742;2023-07-20T05:21:46;14.30;56.20
33863;DHT22;20158;51.436;-2.742;2023-07-20T05:24:12;14.30;56.20
33863;DHT22;20158;51.436;-2.742;2023-07-20T05:26:38;14.30;56.30
33863;DHT22;20158;51.436;-2.742;2023-07-20T05:29:04;14.40;56.50
33863;DHT22;20158;51.436;-2.742;2023-07-20T05:31:30;14.40;56.50
33863;DHT22;20158;51.436;-2.742;2023-07-20T05:33:57;14.40;56.50
33863;DHT22;20158;51.436;-2.742;2023-07-20T05:36:24;14.50;56.70
33863;DHT22;20158;51.436;-2.742;2023-07-20T05:38:50;14.60;57.40
33863;DHT22;20158;51.436;-2.742;2023-07-20T05:41:17;14.60;56.80
33863;DHT22;20158;51.436;-2.742;2023-07-20T05:43:43;14.70;56.90
33863;DHT22;20158;51.436;-2.742;2023-07-20T05:46:09;14.70;56.90
33863;DHT22;20158;51.436;-2.742;2023-07-20T05:48:38;14.80;57.00
33863;DHT22;20158;51.436;-2.742;2023-07-20T05:51:05;14.80;57.00
33863;DHT22;20158;51.436;-2.742;2023-07-20T05:53:31;14.90;57.20
33863;DHT22;20158;51.436;-2.742;2023-07-20T05:55:57;14.90;57.50
33863;DHT22;20158;51.436;-2.742;2023-07-20T05:58:24;15.10;58.80
33863;DHT22;20158;51.436;-2.742;2023-07-20T06:00:50;15.20;59.60
33863;DHT22;20158;51.436;-2.742;2023-07-20T06:03:16;15.40;60.30
33863;DHT22;20158;51.436;-2.742;2023-07-20T06:05:43;15.60;60.70
33863;DHT22;20158;51.436;-2.742;2023-07-20T06:08:09;15.80;61.10
33863;DHT22;20158;51.436;-2.742;2023-07-20T06:10:36;16.10;61.50
33863;DHT22;20158;51.436;-2.742;2023-07-20T06:13:01;16.20;61.40
33863;DHT22;20158;51.436;-2.742;2023-07-20T06:15:32;16.40;61.60
33863;DHT22;20158;51.436;-2.742;2023-07-20T06:18:00;16.60;61.90
33863;DHT22;20158;51.436;-2.742;2023-07-20T06:20:29;16.80;61.90
33863;DHT22;20158;51.436;-2.742;2023-07-20T06:22:56;16.90;61.90
33863;DHT22;20158;51.436;-2.742;2023-07-20T06:25:22;17.10;62.20
33863;DHT22;20158;51.436;-2.742;2023-07-20T06:27:50;17.20;62.20
33863;DHT22;20158;51.436;-2.742;2023-07-20T06:30:19;17.30;62.30
33863;DHT22;20158;51.436;-2.742;2023-07-20T06:32:46;17.50;62.40
33863;DHT22;20158;51.436;-2.742;2023-07-20T06:35:12;17.70;62.50
33863;DHT22;20158;51.436;-2.742;2023-07-20T06:37:39;17.90;62.40
33863;DHT22;20158;51.436;-2.742;2023-07-20T06:40:06;18.30;62.20
33863;DHT22;20158;51.436;-2.742;2023-07-20T06:42:35;18.80;62.00
33863;DHT22;20158;51.436;-2.742;2023-07-20T06:45:01;19.20;61.30
33863;DHT22;20158;51.436;-2.742;2023-07-20T06:47:28;19.70;60.90
33863;DHT22;20158;51.436;-2.742;2023-07-20T06:49:54;20.20;60.60
33863;DHT22;20158;51.436;-2.742;2023-07-20T06:52:20;20.70;60.20
33863;DHT22;20158;51.436;-2.742;2023-07-20T06:54:47;21.10;59.40
33863;DHT22;20158;51.436;-2.742;2023-07-20T06:57:13;21.50;59.20
33863;DHT22;20158;51.436;-2.742;2023-07-20T06:59:40;21.70;58.90
33863;DHT22;20158;51.436;-2.742;2023-07-20T07:02:06;22.00;58.60
33863;DHT22;20158;51.436;-2.742;2023-07-20T07:04:32;22.20;58.30
33863;DHT22;20158;51.436;-2.742;2023-07-20T07:06:59;22.50;58.00
33863;DHT22;20158;51.436;-2.742;2023-07-20T07:09:25;22.80;57.40
33863;DHT22;20158;51.436;-2.742;2023-07-20T07:11:52;22.80;56.90
33863;DHT22;20158;51.436;-2.742;2023-07-20T07:14:21;22.90;56.80
33863;DHT22;20158;51.436;-2.742;2023-07-20T07:16:48;23.20;56.80
33863;DHT22;20158;51.436;-2.742;2023-07-20T07:19:20;23.60;56.40
33863;DHT22;20158;51.436;-2.742;2023-07-20T07:21:48;24.20;56.10
33863;DHT22;20158;51.436;-2.742;2023-07-20T07:24:14;24.50;55.30
33863;DHT22;20158;51.436;-2.742;2023-07-20T07:26:41;24.70;55.00
33863;DHT22;20158;51.436;-2.742;2023-07-20T07:29:07;24.80;54.70
33863;DHT22;20158;51.436;-2.742;2023-07-20T07:31:34;25.10;54.60
33863;DHT22;20158;51.436;-2.742;2023-07-20T07:34:02;25.50;53.70
33863;DHT22;20158;51.436;-2.742;2023-07-20T07:36:30;25.80;53.00
33863;DHT22;20158;51.436;-2.742;2023-07-20T07:38:57;25.90;52.70
33863;DHT22;20158;51.436;-2.742;2023-07-20T07:41:23;26.10;52.60
33863;DHT22;20158;51.436;-2.742;2023-07-20T07:43:49;26.20;52.40
33863;DHT22;20158;51.436;-2.742;2023-07-20T07:46:16;26.40;52.20
33863;DHT22;20158;51.436;-2.742;2023-07-20T07:48:45;26.60;51.80
33863;DHT22;20158;51.436;-2.742;2023-07-20T07:51:11;27.10;50.70
33863;DHT22;20158;51.436;-2.742;2023-07-20T07:53:40;27.70;49.40
33863;DHT22;20158;51.436;-2.742;2023-07-20T07:56:07;28.20;48.40
33863;DHT22;20158;51.436;-2.742;2023-07-20T07:58:33;28.50;47.60
33863;DHT22;20158;51.436;-2.742;2023-07-20T08:01:00;28.80;47.00
33863;DHT22;20158;51.436;-2.742;2023-07-20T08:03:26;29.00;46.50
33863;DHT22;20158;51.436;-2.742;2023-07-20T08:05:55;28.80;46.20
33863;DHT22;20158;51.436;-2.742;2023-07-20T08:08:22;28.70;46.30
33863;DHT22;20158;51.436;-2.742;2023-07-20T08:10:48;28.50;46.60
33863;DHT22;20158;51.436;-2.742;2023-07-20T08:13:15;28.30;46.80
33863;DHT22;20158;51.436;-2.742;2023-07-20T08:15:48;28.00;46.80
33863;DHT22;20158;51.436;-2.742;2023-07-20T08:18:14;27.80;46.80
33863;DHT22;20158;51.436;-2.742;2023-07-20T08:20:44;27.50;47.20
33863;DHT22;20158;51.436;-2.742;2023-07-20T08:23:19;27.30;47.30
33863;DHT22;20158;51.436;-2.742;2023-07-20T08:25:45;27.20;47.60
33863;DHT22;20158;51.436;-2.742;2023-07-20T08:28:15;27.10;47.60
33863;DHT22;20158;51.436;-2.742;2023-07-20T08:30:44;27.10;47.50
33863;DHT22;20158;51.436;-2.742;2023-07-20T08:33:12;27.10;47.60
33863;DHT22;20158;51.436;-2.742;2023-07-20T08:35:38;27.00;48.10
33863;DHT22;20158;51.436;-2.742;2023-07-20T08:38:04;27.00;47.40
33863;DHT22;20158;51.436;-2.742;2023-07-20T08:40:32;27.00;47.40
33863;DHT22;20158;51.436;-2.742;2023-07-20T08:42:59;27.00;47.30
33863;DHT22;20158;51.436;-2.742;2023-07-20T08:45:27;26.90;47.10
33863;DHT22;20158;51.436;-2.742;2023-07-20T08:47:56;27.00;47.10
33863;DHT22;20158;51.436;-2.742;2023-07-20T08:50:28;27.00;46.90
33863;DHT22;20158;51.436;-2.742;2023-07-20T08:52:57;27.00;47.00
33863;DHT22;20158;51.436;-2.742;2023-07-20T08:55:27;27.00;46.90
33863;DHT22;20158;51.436;-2.742;2023-07-20T08:57:55;27.10;46.90
33863;DHT22;20158;51.436;-2.742;2023-07-20T09:00:25;27.10;46.70
33863;DHT22;20158;51.436;-2.742;2023-07-20T09:03:01;27.20;46.60
33863;DHT22;20158;51.436;-2.742;2023-07-20T09:05:28;27.40;46.60
33863;DHT22;20158;51.436;-2.742;2023-07-20T09:07:58;27.50;46.50
33863;DHT22;20158;51.436;-2.742;2023-07-20T09:10:30;27.60;46.30
33863;DHT22;20158;51.436;-2.742;2023-07-20T09:12:57;27.70;46.20
33863;DHT22;20158;51.436;-2.742;2023-07-20T09:15:23;27.80;46.00
33863;DHT22;20158;51.436;-2.742;2023-07-20T09:17:50;27.90;45.90
33863;DHT22;20158;51.436;-2.742;2023-07-20T09:20:18;27.90;45.60
33863;DHT22;20158;51.436;-2.742;2023-07-20T09:22:44;28.00;46.20
33863;DHT22;20158;51.436;-2.742;2023-07-20T09:25:18;27.80;45.50
33863;DHT22;20158;51.436;-2.742;2023-07-20T09:27:54;27.70;45.40
33863;DHT22;20158;51.436;-2.742;2023-07-20T09:30:25;27.80;45.50
33863;DHT22;20158;51.436;-2.742;2023-07-20T09:33:00;27.80;45.30
33863;DHT22;20158;51.436;-2.742;2023-07-20T09:35:29;27.90;45.20
33863;DHT22;20158;51.436;-2.742;2023-07-20T09:38:05;28.00;45.10
33863;DHT22;20158;51.436;-2.742;2023-07-20T09:40:37;28.10;45.10
33863;DHT22;20158;51.436;-2.742;2023-07-20T09:43:08;28.10;44.80
33863;DHT22;20158;51.436;-2.742;2023-07-20T09:45:39;28.20;44.80
33863;DHT22;20158;51.436;-2.742;2023-07-20T09:48:07;28.40;44.70
33863;DHT22;20158;51.436;-2.742;2023-07-20T09:50:34;28.50;44.60
33863;DHT22;20158;51.436;-2.742;2023-07-20T09:53:01;28.60;44.30
33863;DHT22;20158;51.436;-2.742;2023-07-20T09:55:31;28.80;44.20
33863;DHT22;20158;51.436;-2.742;2023-07-20T09:57:59;28.90;44.00
33863;DHT22;20158;51.436;-2.742;2023-07-20T10:00:26;29.10;44.00
33863;DHT22;20158;51.436;-2.742;2023-07-20T10:02:52;29.20;43.90
33863;DHT22;20158;51.436;-2.742;2023-07-20T10:05:20;29.40;43.80
33863;DHT22;20158;51.436;-2.742;2023-07-20T10:07:48;29.60;43.50
33863;DHT22;20158;51.436;-2.742;2023-07-20T10:10:16;29.70;43.30
33863;DHT22;20158;51.436;-2.742;2023-07-20T10:12:49;29.90;43.10
33863;DHT22;20158;51.436;-2.742;2023-07-20T10:15:46;30.00;43.00
33863;DHT22;20158;51.436;-2.742;2023-07-20T10:18:18;30.00;42.70
33863;DHT22;20158;51.436;-2.742;2023-07-20T10:20:54;30.00;42.70
33863;DHT22;20158;51.436;-2.742;2023-07-20T10:23:22;30.10;42.80
33863;DHT22;20158;51.436;-2.742;2023-07-20T10:25:50;30.20;42.60
33863;DHT22;20158;51.436;-2.742;2023-07-20T10:28:16;30.20;42.30
33863;DHT22;20158;51.436;-2.742;2023-07-20T10:30:45;30.10;42.00
33863;DHT22;20158;51.436;-2.742;2023-07-20T10:33:15;29.90;42.00
33863;DHT22;20158;51.436;-2.742;2023-07-20T10:35:56;29.80;42.00
33863;DHT22;20158;51.436;-2.742;2023-07-20T10:38:51;29.80;42.00
33863;DHT22;20158;51.436;-2.742;2023-07-20T10:41:29;29.90;42.00
33863;DHT22;20158;51.436;-2.742;2023-07-20T10:44:03;30.00;41.80
33863;DHT22;20158;51.436;-2.742;2023-07-20T10:49:07;30.10;41.40
33863;DHT22;20158;51.436;-2.742;2023-07-20T10:51:41;30.00;41.70
33863;DHT22;20158;51.436;-2.742;2023-07-20T10:56:47;30.20;41.90
33863;DHT22;20158;51.436;-2.742;2023-07-20T10:59:19;30.40;41.60
33863;DHT22;20158;51.436;-2.742;2023-07-20T11:01:57;30.70;41.30
33863;DHT22;20158;51.436;-2.742;2023-07-20T11:04:46;30.90;41.00
33863;DHT22;20158;51.436;-2.742;2023-07-20T11:07:36;31.10;40.30
33863;DHT22;20158;51.436;-2.742;2023-07-20T11:10:15;31.40;40.30
33863;DHT22;20158;51.436;-2.742;2023-07-20T11:12:41;31.50;40.30
33863;DHT22;20158;51.436;-2.742;2023-07-20T11:15:13;31.70;40.30
33863;DHT22;20158;51.436;-2.742;2023-07-20T11:17:39;31.70;40.00
33863;DHT22;20158;51.436;-2.742;2023-07-20T11:20:12;31.80;39.80
33863;DHT22;20158;51.436;-2.742;2023-07-20T11:22:39;31.80;39.50
33863;DHT22;20158;51.436;-2.742;2023-07-20T11:25:10;32.00;39.70
33863;DHT22;20158;51.436;-2.742;2023-07-20T11:27:45;32.00;40.10
33863;DHT22;20158;51.436;-2.742;2023-07-20T11:30:17;32.20;39.30
33863;DHT22;20158;51.436;-2.742;2023-07-20T11:32:48;32.30;38.90
33863;DHT22;20158;51.436;-2.742;2023-07-20T11:35:14;32.50;38.90
33863;DHT22;20158;51.436;-2.742;2023-07-20T11:37:41;32.60;38.70
33863;DHT22;20158;51.436;-2.742;2023-07-20T11:40:10;32.50;38.60
33863;DHT22;20158;51.436;-2.742;2023-07-20T11:42:36;32.50;38.60
33863;DHT22;20158;51.436;-2.742;2023-07-20T11:45:03;32.40;38.70
33863;DHT22;20158;51.436;-2.742;2023-07-20T11:47:30;32.40;38.90
33863;DHT22;20158;51.436;-2.742;2023-07-20T11:50:03;32.40;38.90
33863;DHT22;20158;51.436;-2.742;2023-07-20T11:52:33;32.30;38.40
33863;DHT22;20158;51.436;-2.742;2023-07-20T11:54:59;32.20;38.50
33863;DHT22;20158;51.436;-2.742;2023-07-20T11:57:26;32.10;38.50
33863;DHT22;20158;51.436;-2.742;2023-07-20T11:59:56;32.10;38.60
33863;DHT22;20158;51.436;-2.742;2023-07-20T12:02:24;32.10;38.60
33863;DHT22;20158;51.436;-2.742;2023-07-20T12:04:54;32.10;38.60
33863;DHT22;20158;51.436;-2.742;2023-07-20T12:07:21;32.30;38.50
33863;DHT22;20158;51.436;-2.742;2023-07-20T12:10:07;32.40;38.10
33863;DHT22;20158;51.436;-2.742;2023-07-20T12:12:44;32.60;37.40
33863;DHT22;20158;51.436;-2.742;2023-07-20T12:15:17;32.80;37.50
33863;DHT22;20158;51.436;-2.742;2023-07-20T12:17:45;33.10;37.40
33863;DHT22;20158;51.436;-2.742;2023-07-20T12:20:34;33.40;37.30
33863;DHT22;20158;51.436;-2.742;2023-07-20T12:23:20;33.80;37.20
33863;DHT22;20158;51.436;-2.742;2023-07-20T12:25:46;33.90;36.60
33863;DHT22;20158;51.436;-2.742;2023-07-20T12:28:17;34.00;36.80
33863;DHT22;20158;51.436;-2.742;2023-07-20T12:30:53;34.00;36.60
33863;DHT22;20158;51.436;-2.742;2023-07-20T12:33:22;33.80;36.70
33863;DHT22;20158;51.436;-2.742;2023-07-20T12:35:52;33.70;36.60
33863;DHT22;20158;51.436;-2.742;2023-07-20T12:38:31;33.50;36.70
33863;DHT22;20158;51.436;-2.742;2023-07-20T12:40:57;33.30;37.40
33863;DHT22;20158;51.436;-2.742;2023-07-20T12:43:24;33.10;36.80
33863;DHT22;20158;51.436;-2.742;2023-07-20T12:45:53;33.00;37.00
33863;DHT22;20158;51.436;-2.742;2023-07-20T12:48:23;32.80;37.10
33863;DHT22;20158;51.436;-2.742;2023-07-20T12:50:49;32.60;37.30
33863;DHT22;20158;51.436;-2.742;2023-07-20T12:53:22;32.50;37.40
33863;DHT22;20158;51.436;-2.742;2023-07-20T12:55:48;32.30;38.10
33863;DHT22;20158;51.436;-2.742;2023-07-20T12:58:17;32.20;37.60
33863;DHT22;20158;51.436;-2.742;2023-07-20T13:00:44;32.10;37.70
33863;DHT22;20158;51.436;-2.742;2023-07-20T13:03:10;32.00;37.90
33863;DHT22;20158;51.436;-2.742;2023-07-20T13:05:36;31.90;38.00
33863;DHT22;20158;51.436;-2.742;2023-07-20T13:08:03;31.80;38.00
33863;DHT22;20158;51.436;-2.742;2023-07-20T13:10:29;31.70;38.20
33863;DHT22;20158;51.436;-2.742;2023-07-20T13:12:55;31.60;38.30
33863;DHT22;20158;51.436;-2.742;2023-07-20T13:15:23;31.60;38.40
33863;DHT22;20158;51.436;-2.742;2023-07-20T13:17:49;31.40;38.40
33863;DHT22;20158;51.436;-2.742;2023-07-20T13:20:16;31.40;38.50
33863;DHT22;20158;51.436;-2.742;2023-07-20T13:22:47;31.40;38.60
33863;DHT22;20158;51.436;-2.742;2023-07-20T13:25:14;31.40;38.70
33863;DHT22;20158;51.436;-2.742;2023-07-20T13:27:40;31.40;38.70
33863;DHT22;20158;51.436;-2.742;2023-07-20T13:30:07;31.40;38.70
33863;DHT22;20158;51.436;-2.742;2023-07-20T13:32:36;31.50;38.70
33863;DHT22;20158;51.436;-2.742;2023-07-20T13:35:03;31.50;38.70
33863;DHT22;20158;51.436;-2.742;2023-07-20T13:37:29;31.60;38.70
33863;DHT22;20158;51.436;-2.742;2023-07-20T13:39:56;31.50;38.60
33863;DHT22;20158;51.436;-2.742;2023-07-20T13:42:22;31.60;38.60
33863;DHT22;20158;51.436;-2.742;2023-07-20T13:44:49;31.50;38.50
33863;DHT22;20158;51.436;-2.742;2023-07-20T13:47:14;31.50;38.60
33863;DHT22;20158;51.436;-2.742;2023-07-20T13:49:41;31.50;38.60
33863;DHT22;20158;51.436;-2.742;2023-07-20T13:52:07;31.40;38.60
33863;DHT22;20158;51.436;-2.742;2023-07-20T13:54:33;31.70;38.60
33863;DHT22;20158;51.436;-2.742;2023-07-20T13:56:59;32.00;39.00
33863;DHT22;20158;51.436;-2.742;2023-07-20T13:59:25;32.40;38.10
33863;DHT22;20158;51.436;-2.742;2023-07-20T14:01:51;32.80;37.80
33863;DHT22;20158;51.436;-2.742;2023-07-20T14:04:17;33.10;37.50
33863;DHT22;20158;51.436;-2.742;2023-07-20T14:06:43;33.20;38.00
33863;DHT22;20158;51.436;-2.742;2023-07-20T14:09:09;33.40;37.40
33863;DHT22;20158;51.436;-2.742;2023-07-20T14:11:36;33.70;37.20
33863;DHT22;20158;51.436;-2.742;2023-07-20T14:14:02;34.00;37.10
33863;DHT22;20158;51.436;-2.742;2023-07-20T14:16:28;34.30;36.90
33863;DHT22;20158;51.436;-2.742;2023-07-20T14:18:54;34.80;36.80
33863;DHT22;20158;51.436;-2.742;2023-07-20T14:21:21;35.10;36.50
33863;DHT22;20158;51.436;-2.742;2023-07-20T14:23:51;35.50;36.40
33863;DHT22;20158;51.436;-2.742;2023-07-20T14:26:17;35.80;36.00
33863;DHT22;20158;51.436;-2.742;2023-07-20T14:28:43;36.10;35.90
33863;DHT22;20158;51.436;-2.742;2023-07-20T14:31:09;36.40;35.70
33863;DHT22;20158;51.436;-2.742;2023-07-20T14:33:35;36.60;35.40
33863;DHT22;20158;51.436;-2.742;2023-07-20T14:36:02;36.70;35.20
33863;DHT22;20158;51.436;-2.742;2023-07-20T14:38:30;36.70;35.10
33863;DHT22;20158;51.436;-2.742;2023-07-20T14:40:56;36.60;35.10
33863;DHT22;20158;51.436;-2.742;2023-07-20T14:43:22;36.60;35.10
33863;DHT22;20158;51.436;-2.742;2023-07-20T14:45:48;36.60;35.20
33863;DHT22;20158;51.436;-2.742;2023-07-20T14:48:14;36.40;35.20
33863;DHT22;20158;51.436;-2.742;2023-07-20T14:50:40;36.10;35.30
33863;DHT22;20158;51.436;-2.742;2023-07-20T14:53:06;35.80;35.50
33863;DHT22;20158;51.436;-2.742;2023-07-20T14:55:33;35.60;35.80
33863;DHT22;20158;51.436;-2.742;2023-07-20T14:57:59;35.30;36.00
33863;DHT22;20158;51.436;-2.742;2023-07-20T15:00:25;35.10;36.30
33863;DHT22;20158;51.436;-2.742;2023-07-20T15:02:51;34.80;36.40
33863;DHT22;20158;51.436;-2.742;2023-07-20T15:05:22;34.40;36.70
33863;DHT22;20158;51.436;-2.742;2023-07-20T15:07:49;34.10;37.00
33863;DHT22;20158;51.436;-2.742;2023-07-20T15:10:16;33.80;37.30
33863;DHT22;20158;51.436;-2.742;2023-07-20T15:12:42;33.40;37.70
33863;DHT22;20158;51.436;-2.742;2023-07-20T15:15:09;33.10;38.10
33863;DHT22;20158;51.436;-2.742;2023-07-20T15:17:37;32.70;38.20
33863;DHT22;20158;51.436;-2.742;2023-07-20T15:20:05;32.50;38.60
33863;DHT22;20158;51.436;-2.742;2023-07-20T15:22:32;32.10;38.90
33863;DHT22;20158;51.436;-2.742;2023-07-20T15:24:58;31.80;39.10
33863;DHT22;20158;51.436;-2.742;2023-07-20T15:27:24;31.50;39.40
33863;DHT22;20158;51.436;-2.742;2023-07-20T15:29:50;31.20;39.70
33863;DHT22;20158;51.436;-2.742;2023-07-20T15:32:19;30.90;39.90
33863;DHT22;20158;51.436;-2.742;2023-07-20T15:34:46;30.60;40.10
33863;DHT22;20158;51.436;-2.742;2023-07-20T15:37:12;30.40;40.40
33863;DHT22;20158;51.436;-2.742;2023-07-20T15:39:39;30.10;40.50
33863;DHT22;20158;51.436;-2.742;2023-07-20T15:42:06;29.90;40.80